Aérodrome :
LOGIN :

S'inscrire | Disclaimer

   EN    FR    IT 

 










Légende :    VFR   VFR Marginal   IFR   IFR Intensif   IFR Très Intensif
Visi : 
Plafond : 
>= 8 km
>= 3000ft
5 à 8 km
1000 à 3000 ft
1500m à 5 km
500 à 1000 ft
800 à 1500m
200 à 500 ft
< 800m
< 200 ft
Symboles :   Orages  Brouillard  Fortes neiges  Fortes précipitations  Vent > 20 kt
SIGMETs :   Divers  Orages  Givrage  Turbulence  Onde Orograph.  Cendres Volcan.






- Altitude de l'aérodrome : 42 ft
- Code IATA : CAL


EGEC - Campbeltown

DERNIER METAR :
  • 240850Z 27017KT 3400 BR BKN002 BKN007 15/15 Q1009

METARs EXPIRÉS :
  • 240820Z 27016KT 2600 BR OVC002 15/15 Q1009
  • 240750Z 27014KT 2500 BR OVC002 15/15 Q1009
  • 240720Z 27013KT 2500 BR BKN003 15/15 Q1009
  • 240650Z 27015KT 4500 BR BKN004 15/15 Q1009

TAF TAF EGEC
Valide du 24 à 09h jusqu'au 24 à 17h UTC


240800Z 2409/2417 26014KT 9999 SCT010 BKN020
TEMPO 2409/2417 7000 -RA BKN008
PROB40
TEMPO 2409/2415 27018G30KT
PROB40
TEMPO 2409/2412 3000 RADZ BR BKN004



MET'MAP, la Météo Aéronautique d'un coup d'oeil ! - Copyright ORBIFLY Décembre 2007 - Disclaimer

ORBIFLY MET'MAP TEAM :

Programmation & Développement : Alexandra Zaïnal
Sur une idée originale de : Baudouin d'Aumeries
Assistance à la programmation : Marc-Olivier Méhu
Soutien technique & logistique : Manuel Goepfert

Contact : metmap@orbifly.com




SOURCES & CREDITS :

   NOAA